Time;durP1;ratioP1;P1;durP2;ratioP2;P2;SDS_P1;SDS_P2;PMS_P1;PMS_P2;Temp;Humidity;BMP_temperature;BMP_pressure;BME280_temperature;BME280_humidity;BME280_pressure;Samples;Min_cycle;Max_cycle;Signal;HPM_P1;HPM_P2
2023/12/04 00:01:23;;;;;;;24.60;10.20;;;;;;;-128.00;-1.00;-1.00;100061;1288;1004300;-30
2023/12/04 00:03:48;;;;;;;;;;;;;;;-128.00;-1.00;-1.00;100047;1286;1004561;-32
2023/12/04 00:06:14;;;;;;;37.10;13.90;;;;;;;-128.00;-1.00;-1.00;100024;1288;1004505;-30
2023/12/04 00:08:40;;;;;;;35.50;13.80;;;;;;;-128.00;-1.00;-1.00;100049;1283;1047647;-33
2023/12/04 00:11:06;;;;;;;19.10;8.60;;;;;;;-128.00;-1.00;-1.00;100024;1283;1004752;-30
2023/12/04 00:13:32;;;;;;;25.40;10.80;;;;;;;-128.00;-1.00;-1.00;100049;1283;1004466;-32
2023/12/04 00:15:58;;;;;;;26.70;10.20;;;;;;;-128.00;-1.00;-1.00;99987;1283;1004309;-34
2023/12/04 00:18:23;;;;;;;22.40;8.20;;;;;;;-128.00;-1.00;-1.00;99954;1288;1046311;-31
2023/12/04 00:20:49;;;;;;;34.30;13.80;;;;;;;-128.00;-1.00;-1.00;99980;1288;1004079;-32
2023/12/04 00:23:15;;;;;;;15.40;7.50;;;;;;;-128.00;-1.00;-1.00;100003;1285;1006261;-31
2023/12/04 00:25:41;;;;;;;35.50;13.40;;;;;;;-128.00;-1.00;-1.00;99911;1288;1058155;-31
2023/12/04 00:28:07;;;;;;;23.60;9.30;;;;;;;-128.00;-1.00;-1.00;99989;1288;1004413;-33
2023/12/04 00:30:33;;;;;;;37.70;13.60;;;;;;;-128.00;-1.00;-1.00;100037;1288;1004350;-30
2023/12/04 00:32:58;;;;;;;38.10;14.10;;;;;;;-128.00;-1.00;-1.00;100007;1285;1060905;-32
2023/12/04 00:35:24;;;;;;;32.80;13.80;;;;;;;-128.00;-1.00;-1.00;100097;1285;1004349;-31
2023/12/04 00:37:50;;;;;;;34.30;13.40;;;;;;;-128.00;-1.00;-1.00;99881;1285;1004100;-32
2023/12/04 00:40:16;;;;;;;37.70;15.00;;;;;;;-128.00;-1.00;-1.00;99990;1288;1045664;-33
2023/12/04 00:42:42;;;;;;;24.60;10.30;;;;;;;-128.00;-1.00;-1.00;100032;1287;1004917;-31
2023/12/04 00:45:08;;;;;;;24.20;9.70;;;;;;;-128.00;-1.00;-1.00;100009;1288;1004173;-31
2023/12/04 00:47:33;;;;;;;18.90;7.60;;;;;;;-128.00;-1.00;-1.00;100017;1283;1058530;-30
2023/12/04 00:49:59;;;;;;;29.70;10.50;;;;;;;-128.00;-1.00;-1.00;100055;1288;1004607;-32
2023/12/04 00:52:25;;;;;;;29.90;9.90;;;;;;;-128.00;-1.00;-1.00;100047;1288;1004046;-29
2023/12/04 00:54:53;;;;;;;36.90;13.60;;;;;;;-128.00;-1.00;-1.00;99983;1288;1059778;-29
2023/12/04 00:57:21;;;;;;;32.10;11.60;;;;;;;-128.00;-1.00;-1.00;99963;1285;1004894;-31
2023/12/04 00:59:49;;;;;;;27.30;9.90;;;;;;;-128.00;-1.00;-1.00;99808;1288;1004851;-29
2023/12/04 01:02:17;;;;;;;19.20;8.20;;;;;;;-128.00;-1.00;-1.00;100043;1284;1014379;-31
2023/12/04 01:04:42;;;;;;;27.80;10.20;;;;;;;-128.00;-1.00;-1.00;99976;1285;1004462;-30
2023/12/04 01:07:08;;;;;;;32.40;9.70;;;;;;;-128.00;-1.00;-1.00;99999;1283;1004744;-34
2023/12/04 01:09:36;;;;;;;22.30;9.20;;;;;;;-128.00;-1.00;-1.00;100060;1288;1005024;-35
2023/12/04 01:12:03;;;;;;;19.70;8.30;;;;;;;-128.00;-1.00;-1.00;100026;1285;1059028;-33
2023/12/04 01:14:28;;;;;;;29.20;11.10;;;;;;;-128.00;-1.00;-1.00;99954;1286;1004810;-33
2023/12/04 01:16:54;;;;;;;36.20;12.30;;;;;;;-128.00;-1.00;-1.00;99989;1286;1004690;-31
2023/12/04 01:19:20;;;;;;;20.30;9.40;;;;;;;-128.00;-1.00;-1.00;99979;1288;1061317;-34
2023/12/04 01:21:45;;;;;;;17.70;7.80;;;;;;;-128.00;-1.00;-1.00;99991;1285;1004666;-33
2023/12/04 01:24:11;;;;;;;24.60;10.70;;;;;;;-128.00;-1.00;-1.00;100010;1285;1004446;-31
2023/12/04 01:26:37;;;;;;;22.60;8.60;;;;;;;-128.00;-1.00;-1.00;100019;1288;1046333;-33
2023/12/04 01:29:03;;;;;;;28.80;12.00;;;;;;;-128.00;-1.00;-1.00;100060;1285;1004111;-31
2023/12/04 01:31:29;;;;;;;20.10;7.70;;;;;;;-128.00;-1.00;-1.00;100020;1284;1058902;-32
2023/12/04 01:33:55;;;;;;;21.50;8.30;;;;;;;-128.00;-1.00;-1.00;99959;1287;1005005;-29
2023/12/04 01:36:20;;;;;;;26.40;9.10;;;;;;;-128.00;-1.00;-1.00;99854;1286;1004969;-31
2023/12/04 01:38:46;;;;;;;21.60;8.60;;;;;;;-128.00;-1.00;-1.00;99919;1288;1046568;-29
2023/12/04 01:41:12;;;;;;;26.50;10.60;;;;;;;-128.00;-1.00;-1.00;100014;1286;1004630;-35
2023/12/04 01:43:38;;;;;;;31.30;11.10;;;;;;;-128.00;-1.00;-1.00;100010;1285;1003757;-33
2023/12/04 01:46:04;;;;;;;34.90;11.90;;;;;;;-128.00;-1.00;-1.00;99950;1288;1014310;-33
2023/12/04 01:48:30;;;;;;;24.60;10.10;;;;;;;-128.00;-1.00;-1.00;100021;1288;1004564;-32
2023/12/04 01:50:56;;;;;;;29.40;10.50;;;;;;;-128.00;-1.00;-1.00;99975;1286;1004447;-31
2023/12/04 02:33:54;;;;;;;49.50;18.70;;;;;;;-31.84;79.80;80053.92;102717;1287;1002724;-31
2023/12/04 02:36:19;;;;;;;39.70;14.50;;;;;;;-128.00;-1.00;-1.00;99548;1283;1004130;-32
2023/12/04 02:38:45;;;;;;;42.40;14.40;;;;;;;-128.00;-1.00;-1.00;100009;1288;1004523;-30
2023/12/04 02:41:11;;;;;;;49.20;14.80;;;;;;;-128.00;-1.00;-1.00;100039;1292;1004387;-30
2023/12/04 02:43:37;;;;;;;;;;;;;;;-128.00;-1.00;-1.00;100013;1289;1056523;-32
2023/12/04 02:46:03;;;;;;;45.70;15.60;;;;;;;-128.00;-1.00;-1.00;99973;1289;1004761;-30
2023/12/04 02:48:29;;;;;;;50.60;16.40;;;;;;;-128.00;-1.00;-1.00;100036;1288;1004684;-31
2023/12/04 02:50:55;;;;;;;41.90;14.60;;;;;;;-128.00;-1.00;-1.00;100065;1285;1047325;-31
2023/12/04 02:53:20;;;;;;;40.20;13.30;;;;;;;-128.00;-1.00;-1.00;100032;1283;1004626;-34
2023/12/04 02:55:47;;;;;;;44.20;15.50;;;;;;;-128.00;-1.00;-1.00;99976;1283;1004941;-31
2023/12/04 02:58:12;;;;;;;47.10;16.20;;;;;;;-128.00;-1.00;-1.00;100009;1288;1005164;-33
2023/12/04 03:00:38;;;;;;;49.80;15.40;;;;;;;-128.00;-1.00;-1.00;100003;1296;1046485;-33
2023/12/04 03:03:04;;;;;;;52.20;17.50;;;;;;;-128.00;-1.00;-1.00;100012;1288;1004872;-32
2023/12/04 03:05:30;;;;;;;;;;;;;;;-128.00;-1.00;-1.00;100060;1287;1004385;-30
2023/12/04 03:07:56;;;;;;;44.70;15.30;;;;;;;-128.00;-1.00;-1.00;99970;1288;1058935;-30
2023/12/04 03:10:22;;;;;;;49.10;16.60;;;;;;;-128.00;-1.00;-1.00;100012;1286;1004670;-32
2023/12/04 03:12:48;;;;;;;50.70;16.90;;;;;;;-128.00;-1.00;-1.00;100083;1287;1004103;-32
2023/12/04 03:15:14;;;;;;;;;;;;;;;-128.00;-1.00;-1.00;100046;1288;1059742;-31
2023/12/04 03:17:39;;;;;;;42.90;14.70;;;;;;;-128.00;-1.00;-1.00;100083;1288;1004776;-30
2023/12/04 03:20:08;;;;;;;36.20;14.30;;;;;;;-128.00;-1.00;-1.00;100102;1288;1005422;-32
2023/12/04 03:22:36;;;;;;;28.40;13.40;;;;;;;-128.00;-1.00;-1.00;100008;1287;1046611;-32
2023/12/04 03:25:01;;;;;;;39.50;15.40;;;;;;;-128.00;-1.00;-1.00;100099;1286;1004500;-33
2023/12/04 03:27:27;;;;;;;36.40;13.80;;;;;;;-128.00;-1.00;-1.00;100016;1283;1004583;-33
2023/12/04 03:29:54;;;;;;;;;;;;;;;-128.00;-1.00;-1.00;100025;1288;1004588;-31
2023/12/04 03:32:20;;;;;;;42.80;15.00;;;;;;;-128.00;-1.00;-1.00;99985;1285;1014306;-31
2023/12/04 03:34:46;;;;;;;39.90;15.00;;;;;;;-128.00;-1.00;-1.00;100000;1286;1004840;-31
2023/12/04 03:37:11;;;;;;;45.60;15.40;;;;;;;-128.00;-1.00;-1.00;100032;1285;1004238;-33
2023/12/04 03:39:37;;;;;;;49.80;16.20;;;;;;;-128.00;-1.00;-1.00;100055;1288;1057597;-33
2023/12/04 03:42:03;;;;;;;;;;;;;;;-128.00;-1.00;-1.00;100022;1289;1004289;-33
2023/12/04 03:44:30;;;;;;;37.50;14.60;;;;;;;-128.00;-1.00;-1.00;99905;1283;1004162;-37
2023/12/04 03:46:55;;;;;;;41.40;15.60;;;;;;;-128.00;-1.00;-1.00;100006;1286;1047363;-31
2023/12/04 03:49:21;;;;;;;51.20;16.90;;;;;;;-128.00;-1.00;-1.00;100031;1288;1005246;-31
2023/12/04 03:51:47;;;;;;;46.30;16.20;;;;;;;-128.00;-1.00;-1.00;100027;1286;1004165;-28
2023/12/04 03:54:13;;;;;;;43.50;16.20;;;;;;;-128.00;-1.00;-1.00;99963;1289;1013774;-33
2023/12/04 03:56:40;;;;;;;40.70;15.00;;;;;;;-128.00;-1.00;-1.00;100029;1288;1003742;-33
2023/12/04 03:59:06;;;;;;;41.30;15.50;;;;;;;-128.00;-1.00;-1.00;100106;1286;1004466;-31
2023/12/04 04:01:31;;;;;;;;;;;;;;;-128.00;-1.00;-1.00;99983;1283;1003747;-33
2023/12/04 04:03:57;;;;;;;40.90;13.60;;;;;;;-128.00;-1.00;-1.00;100050;1287;1004600;-33
2023/12/04 04:06:23;;;;;;;38.50;13.40;;;;;;;-128.00;-1.00;-1.00;100026;1284;1004501;-31
2023/12/04 04:08:49;;;;;;;;;;;;;;;-128.00;-1.00;-1.00;100009;1288;1046666;-32
2023/12/04 04:11:15;;;;;;;34.50;14.10;;;;;;;-128.00;-1.00;-1.00;100044;1283;1004655;-30
2023/12/04 04:13:41;;;;;;;38.80;13.00;;;;;;;-128.00;-1.00;-1.00;100059;1283;1004908;-32
2023/12/04 04:16:07;;;;;;;37.40;14.30;;;;;;;-128.00;-1.00;-1.00;99920;1289;1059732;-30
2023/12/04 04:18:33;;;;;;;52.90;17.60;;;;;;;-128.00;-1.00;-1.00;99845;1285;1004666;-32
2023/12/04 04:20:59;;;;;;;41.60;14.90;;;;;;;-128.00;-1.00;-1.00;100028;1283;1004881;-32
2023/12/04 04:23:24;;;;;;;;;;;;;;;-128.00;-1.00;-1.00;100081;1284;1005454;-30
2023/12/04 04:25:50;;;;;;;49.40;18.10;;;;;;;-128.00;-1.00;-1.00;99972;1287;1056672;-35
2023/12/04 04:28:16;;;;;;;61.20;22.10;;;;;;;-128.00;-1.00;-1.00;99991;1283;1004086;-30
2023/12/04 04:30:42;;;;;;;60.00;18.90;;;;;;;-128.00;-1.00;-1.00;100012;1285;1004454;-32
2023/12/04 04:33:08;;;;;;;49.20;17.60;;;;;;;-128.00;-1.00;-1.00;100038;1288;1047367;-29
2023/12/04 04:35:34;;;;;;;90.10;36.60;;;;;;;-128.00;-1.00;-1.00;100037;1288;1004658;-33
2023/12/04 04:38:00;;;;;;;;;;;;;;;-128.00;-1.00;-1.00;100079;1283;1004649;-31
2023/12/04 04:40:26;;;;;;;48.00;17.30;;;;;;;-128.00;-1.00;-1.00;99977;1283;1004840;-32
2023/12/04 04:42:51;;;;;;;46.80;16.20;;;;;;;-128.00;-1.00;-1.00;99855;1288;1046162;-31
2023/12/04 04:45:17;;;;;;;52.60;17.90;;;;;;;-128.00;-1.00;-1.00;100037;1288;1004501;-33
2023/12/04 04:47:43;;;;;;;46.50;17.20;;;;;;;-128.00;-1.00;-1.00;100032;1288;1004804;-32
2023/12/04 04:50:09;;;;;;;;;;;;;;;-128.00;-1.00;-1.00;99986;1285;1059589;-30
2023/12/04 04:52:35;;;;;;;54.60;18.30;;;;;;;-128.00;-1.00;-1.00;100039;1288;1004584;-29
2023/12/04 04:55:01;;;;;;;47.80;18.50;;;;;;;-128.00;-1.00;-1.00;100010;1284;1004274;-30
2023/12/04 04:57:27;;;;;;;66.30;24.40;;;;;;;-128.00;-1.00;-1.00;99994;1288;1060820;-32
2023/12/04 04:59:53;;;;;;;86.60;29.10;;;;;;;-128.00;-1.00;-1.00;99999;1285;1005001;-31
2023/12/04 05:02:18;;;;;;;92.40;32.50;;;;;;;-128.00;-1.00;-1.00;100041;1288;1004518;-31
2023/12/04 05:04:44;;;;;;;;;;;;;;;-128.00;-1.00;-1.00;100057;1287;1045893;-29
2023/12/04 05:07:10;;;;;;;74.50;24.60;;;;;;;-128.00;-1.00;-1.00;99949;1284;1004155;-29
2023/12/04 05:09:36;;;;;;;;;;;;;;;-128.00;-1.00;-1.00;100016;1284;1005312;-30
2023/12/04 05:12:02;;;;;;;81.20;29.50;;;;;;;-128.00;-1.00;-1.00;99977;1283;1059258;-30
2023/12/04 05:14:28;;;;;;;83.00;29.10;;;;;;;-128.00;-1.00;-1.00;99855;1288;1004069;-30
2023/12/04 05:16:53;;;;;;;;;;;;;;;-128.00;-1.00;-1.00;100054;1286;1003667;-31
2023/12/04 05:19:19;;;;;;;67.00;23.30;;;;;;;-128.00;-1.00;-1.00;99906;1285;1005318;-33
2023/12/04 05:21:45;;;;;;;69.60;24.40;;;;;;;-128.00;-1.00;-1.00;99983;1285;1057190;-31
2023/12/04 05:24:11;;;;;;;77.70;25.10;;;;;;;-128.00;-1.00;-1.00;99994;1288;1004380;-33
2023/12/04 05:26:37;;;;;;;;;;;;;;;-128.00;-1.00;-1.00;100104;1285;1004934;-32
2023/12/04 05:29:03;;;;;;;63.10;20.70;;;;;;;-128.00;-1.00;-1.00;100063;1283;1046286;-32
2023/12/04 05:31:28;;;;;;;;;;;;;;;-128.00;-1.00;-1.00;99917;1283;1004475;-32
2023/12/04 05:33:54;;;;;;;59.00;21.90;;;;;;;-128.00;-1.00;-1.00;100004;1285;1004273;-33
2023/12/04 05:36:20;;;;;;;;;;;;;;;-128.00;-1.00;-1.00;100088;1283;1014876;-31
2023/12/04 05:38:46;;;;;;;74.70;27.90;;;;;;;-128.00;-1.00;-1.00;99997;1286;1003915;-34
2023/12/04 05:41:12;;;;;;;82.80;25.40;;;;;;;-128.00;-1.00;-1.00;100063;1285;1004800;-31
2023/12/04 05:43:38;;;;;;;77.90;25.30;;;;;;;-128.00;-1.00;-1.00;100009;1285;1056035;-32
2023/12/04 05:46:04;;;;;;;60.40;20.90;;;;;;;-128.00;-1.00;-1.00;99934;1283;1005171;-30
2023/12/04 05:48:29;;;;;;;66.30;21.60;;;;;;;-128.00;-1.00;-1.00;100023;1287;1004724;-30
2023/12/04 05:50:55;;;;;;;;;;;;;;;-128.00;-1.00;-1.00;99857;1285;1046806;-30
2023/12/04 05:53:21;;;;;;;66.90;21.40;;;;;;;-128.00;-1.00;-1.00;100086;1284;1003712;-32
2023/12/04 05:55:47;;;;;;;67.20;23.40;;;;;;;-128.00;-1.00;-1.00;100035;1286;1004676;-33
2023/12/04 05:58:13;;;;;;;95.50;28.70;;;;;;;-128.00;-1.00;-1.00;100053;1288;1014047;-30
2023/12/04 06:00:39;;;;;;;;;;;;;;;-128.00;-1.00;-1.00;99968;1286;1004435;-31
2023/12/04 06:03:04;;;;;;;95.90;29.70;;;;;;;-128.00;-1.00;-1.00;100003;1283;1005031;-32
2023/12/04 06:05:30;;;;;;;;;;;;;;;-128.00;-1.00;-1.00;100048;1286;1056461;-31
2023/12/04 06:07:57;;;;;;;140.10;44.70;;;;;;;-128.00;-1.00;-1.00;99911;1288;1004118;-31
2023/12/04 06:10:23;;;;;;;110.00;40.00;;;;;;;-128.00;-1.00;-1.00;100021;1285;1004862;-33
2023/12/04 06:12:49;;;;;;;102.60;33.90;;;;;;;-128.00;-1.00;-1.00;99998;1286;1004066;-33
2023/12/04 06:15:15;;;;;;;90.60;31.30;;;;;;;-128.00;-1.00;-1.00;100022;1283;1004749;-33
2023/12/04 06:17:41;;;;;;;89.50;30.80;;;;;;;-128.00;-1.00;-1.00;99990;1283;1056089;-32
2023/12/04 06:20:07;;;;;;;118.60;36.20;;;;;;;-128.00;-1.00;-1.00;99960;1285;1005392;-30
2023/12/04 06:22:34;;;;;;;268.50;83.10;;;;;;;-128.00;-1.00;-1.00;100024;1288;1004405;-31
2023/12/04 06:25:00;;;;;;;168.20;54.30;;;;;;;-128.00;-1.00;-1.00;99987;1287;1005086;-33
2023/12/04 06:27:26;;;;;;;118.70;36.70;;;;;;;-128.00;-1.00;-1.00;99999;1288;1005075;-33
2023/12/04 06:29:52;;;;;;;112.00;33.10;;;;;;;-128.00;-1.00;-1.00;99948;1288;1005594;-30
2023/12/04 06:32:19;;;;;;;85.60;28.20;;;;;;;-128.00;-1.00;-1.00;100068;1283;1004491;-33
2023/12/04 06:34:45;;;;;;;79.70;27.90;;;;;;;-128.00;-1.00;-1.00;99896;1283;1014452;-31
2023/12/04 06:37:11;;;;;;;97.50;30.20;;;;;;;-128.00;-1.00;-1.00;100004;1283;1003602;-31
2023/12/04 06:39:37;;;;;;;82.60;26.60;;;;;;;-128.00;-1.00;-1.00;100043;1283;1005472;-31
2023/12/04 06:42:04;;;;;;;69.30;24.50;;;;;;;-128.00;-1.00;-1.00;99923;1285;1004638;-31
2023/12/04 06:44:30;;;;;;;76.10;26.10;;;;;;;-128.00;-1.00;-1.00;99903;1283;1004928;-33
2023/12/04 06:46:56;;;;;;;124.00;38.60;;;;;;;-128.00;-1.00;-1.00;99913;1288;1004406;-31
2023/12/04 06:49:22;;;;;;;134.00;40.50;;;;;;;-128.00;-1.00;-1.00;100006;1285;1004968;-33
2023/12/04 06:51:48;;;;;;;;;;;;;;;-128.00;-1.00;-1.00;100065;1283;1005354;-30
2023/12/04 06:54:14;;;;;;;104.40;34.40;;;;;;;-128.00;-1.00;-1.00;99971;1285;1060788;-31
2023/12/04 06:56:39;;;;;;;151.30;44.40;;;;;;;-128.00;-1.00;-1.00;100020;1283;1003753;-30
2023/12/04 06:59:05;;;;;;;132.90;40.20;;;;;;;-128.00;-1.00;-1.00;100029;1283;1004996;-33
2023/12/04 07:01:32;;;;;;;133.60;40.90;;;;;;;-128.00;-1.00;-1.00;99829;1288;1046659;-32
2023/12/04 07:03:58;;;;;;;83.90;26.80;;;;;;;-128.00;-1.00;-1.00;100083;1285;1003795;-32
2023/12/04 07:06:24;;;;;;;84.80;27.70;;;;;;;-128.00;-1.00;-1.00;100055;1285;1004657;-30
2023/12/04 07:08:50;;;;;;;;;;;;;;;-128.00;-1.00;-1.00;99895;1288;1004798;-32
2023/12/04 07:11:16;;;;;;;81.50;26.50;;;;;;;-128.00;-1.00;-1.00;99894;1288;1004998;-30
2023/12/04 07:13:42;;;;;;;80.50;24.50;;;;;;;-128.00;-1.00;-1.00;99935;1288;1046098;-33
2023/12/04 07:16:08;;;;;;;77.40;25.60;;;;;;;-128.00;-1.00;-1.00;99989;1283;1004950;-33
2023/12/04 07:18:34;;;;;;;75.80;25.90;;;;;;;-128.00;-1.00;-1.00;100042;1288;1003974;-33
2023/12/04 07:21:00;;;;;;;60.70;21.70;;;;;;;-128.00;-1.00;-1.00;99989;1283;1004681;-32
2023/12/04 07:23:26;;;;;;;77.00;23.80;;;;;;;-128.00;-1.00;-1.00;99974;1283;1004585;-31
2023/12/04 07:25:52;;;;;;;63.70;21.20;;;;;;;-128.00;-1.00;-1.00;100005;1283;1004985;-31
2023/12/04 07:28:18;;;;;;;78.20;25.30;;;;;;;-128.00;-1.00;-1.00;100149;1284;1046223;-30
2023/12/04 07:30:44;;;;;;;69.00;25.10;;;;;;;-128.00;-1.00;-1.00;100003;1283;1004757;-32
2023/12/04 07:33:11;;;;;;;67.80;24.30;;;;;;;-128.00;-1.00;-1.00;100005;1283;1004270;-37
2023/12/04 07:35:36;;;;;;;77.80;28.10;;;;;;;-128.00;-1.00;-1.00;99971;1286;1004576;-32
2023/12/04 07:38:03;;;;;;;80.10;28.10;;;;;;;-128.00;-1.00;-1.00;99943;1283;1004617;-33
2023/12/04 07:40:29;;;;;;;91.20;33.20;;;;;;;-128.00;-1.00;-1.00;99955;1285;1047017;-31
2023/12/04 07:42:54;;;;;;;;;;;;;;;-128.00;-1.00;-1.00;100007;1285;1004580;-30
2023/12/04 07:45:21;;;;;;;74.90;25.70;;;;;;;-128.00;-1.00;-1.00;99973;1285;1003780;-30
2023/12/04 07:47:47;;;;;;;72.50;24.20;;;;;;;-128.00;-1.00;-1.00;99955;1284;1014749;-33
2023/12/04 07:50:12;;;;;;;;;;;;;;;-128.00;-1.00;-1.00;100011;1283;1004466;-31
2023/12/04 07:52:38;;;;;;;54.30;19.30;;;;;;;-128.00;-1.00;-1.00;100060;1285;1003739;-31
2023/12/04 07:55:04;;;;;;;65.80;22.50;;;;;;;-128.00;-1.00;-1.00;100007;1286;1056233;-32
2023/12/04 07:57:30;;;;;;;50.80;20.20;;;;;;;-128.00;-1.00;-1.00;99963;1285;1004520;-31
2023/12/04 07:59:56;;;;;;;58.10;21.50;;;;;;;-128.00;-1.00;-1.00;100005;1286;1004209;-31
2023/12/04 08:02:22;;;;;;;67.50;25.40;;;;;;;-128.00;-1.00;-1.00;100014;1285;1004683;-33
2023/12/04 08:04:48;;;;;;;80.60;27.20;;;;;;;-128.00;-1.00;-1.00;100011;1283;1060675;-32
2023/12/04 08:07:14;;;;;;;;;;;;;;;-128.00;-1.00;-1.00;99995;1283;1004713;-31
2023/12/04 08:09:41;;;;;;;67.60;24.10;;;;;;;-128.00;-1.00;-1.00;99987;1285;1004595;-32
2023/12/04 08:12:07;;;;;;;75.00;26.90;;;;;;;-128.00;-1.00;-1.00;99941;1285;1004445;-31
2023/12/04 08:14:33;;;;;;;;;;;;;;;-128.00;-1.00;-1.00;99941;1283;1003948;-31
2023/12/04 08:16:59;;;;;;;75.20;26.70;;;;;;;-128.00;-1.00;-1.00;100042;1284;1004782;-34
2023/12/04 08:19:25;;;;;;;75.80;27.40;;;;;;;-128.00;-1.00;-1.00;100063;1288;1004675;-30
2023/12/04 08:21:51;;;;;;;113.10;36.50;;;;;;;-128.00;-1.00;-1.00;99946;1286;1058835;-30
2023/12/04 08:24:18;;;;;;;86.40;28.60;;;;;;;-128.00;-1.00;-1.00;100002;1283;1005343;-32
2023/12/04 08:26:45;;;;;;;84.80;29.50;;;;;;;-128.00;-1.00;-1.00;100002;1288;1004614;-31
2023/12/04 08:29:11;;;;;;;87.30;34.10;;;;;;;-128.00;-1.00;-1.00;100048;1283;1004662;-32
2023/12/04 08:31:37;;;;;;;87.20;32.20;;;;;;;-128.00;-1.00;-1.00;100009;1284;1004507;-33
2023/12/04 08:34:03;;;;;;;113.80;44.80;;;;;;;-128.00;-1.00;-1.00;99700;1284;1004522;-33
2023/12/04 08:36:29;;;;;;;68.50;25.90;;;;;;;-128.00;-1.00;-1.00;100000;1285;1014538;-31
2023/12/04 08:38:54;;;;;;;55.20;22.50;;;;;;;-128.00;-1.00;-1.00;100023;1283;1004389;-31
2023/12/04 08:41:20;;;;;;;54.10;23.50;;;;;;;-128.00;-1.00;-1.00;99995;1285;1004463;-32
2023/12/04 08:43:46;;;;;;;50.70;22.10;;;;;;;-128.00;-1.00;-1.00;99962;1285;1004195;-34
2023/12/04 08:46:13;;;;;;;44.70;19.50;;;;;;;-128.00;-1.00;-1.00;99948;1285;1059377;-35
2023/12/04 08:48:40;;;;;;;53.70;21.30;;;;;;;-128.00;-1.00;-1.00;100029;1283;1004321;-33
2023/12/04 08:51:08;;;;;;;46.90;20.60;;;;;;;-128.00;-1.00;-1.00;100019;1284;1004776;-32
2023/12/04 08:53:34;;;;;;;47.50;19.60;;;;;;;-128.00;-1.00;-1.00;99988;1285;1003663;-32
2023/12/04 08:56:00;;;;;;;40.10;19.70;;;;;;;-128.00;-1.00;-1.00;99925;1283;1004471;-30
2023/12/04 08:58:26;;;;;;;42.30;19.60;;;;;;;-128.00;-1.00;-1.00;99993;1285;1004177;-32
2023/12/04 09:00:52;;;;;;;44.40;19.60;;;;;;;-128.00;-1.00;-1.00;100031;1283;1003729;-32
2023/12/04 09:03:19;;;;;;;39.30;18.30;;;;;;;-128.00;-1.00;-1.00;99997;1288;1043779;-33
2023/12/04 09:05:44;;;;;;;44.20;20.50;;;;;;;-128.00;-1.00;-1.00;99993;1283;1004811;-31
2023/12/04 09:08:10;;;;;;;41.40;18.60;;;;;;;-128.00;-1.00;-1.00;100110;1283;1004826;-33
2023/12/04 09:10:36;;;;;;;41.00;19.10;;;;;;;-128.00;-1.00;-1.00;100019;1283;1004378;-32
2023/12/04 09:13:02;;;;;;;;;;;;;;;-128.00;-1.00;-1.00;100056;1285;1014715;-34
2023/12/04 09:15:28;;;;;;;38.30;18.50;;;;;;;-128.00;-1.00;-1.00;100034;1284;1004351;-33
2023/12/04 09:17:54;;;;;;;102.10;38.60;;;;;;;-128.00;-1.00;-1.00;100026;1283;1004771;-33
2023/12/04 09:20:19;;;;;;;;;;;;;;;-128.00;-1.00;-1.00;100037;1283;1056622;-32
2023/12/04 09:22:46;;;;;;;55.30;29.70;;;;;;;-128.00;-1.00;-1.00;100011;1285;1004292;-32
2023/12/04 09:25:12;;;;;;;202.00;87.70;;;;;;;-128.00;-1.00;-1.00;99928;1283;1004407;-33
2023/12/04 09:27:38;;;;;;;247.30;86.40;;;;;;;-128.00;-1.00;-1.00;100052;1285;1004229;-33
2023/12/04 09:30:04;;;;;;;264.70;87.50;;;;;;;-128.00;-1.00;-1.00;99975;1283;1061700;-31
2023/12/04 09:32:30;;;;;;;70.20;30.30;;;;;;;-128.00;-1.00;-1.00;99995;1283;1005052;-34
2023/12/04 09:34:56;;;;;;;98.30;38.70;;;;;;;-128.00;-1.00;-1.00;100060;1286;1005442;-33
2023/12/04 09:37:22;;;;;;;146.20;49.60;;;;;;;-128.00;-1.00;-1.00;100031;1284;1004518;-33
2023/12/04 09:39:49;;;;;;;;;;;;;;;-128.00;-1.00;-1.00;100024;1283;1047412;-35
2023/12/04 09:42:18;;;;;;;291.90;96.50;;;;;;;-128.00;-1.00;-1.00;100009;1283;1003851;-33
2023/12/04 09:44:44;;;;;;;232.30;81.40;;;;;;;-128.00;-1.00;-1.00;100030;1283;1003446;-35
2023/12/04 09:47:10;;;;;;;102.50;41.60;;;;;;;-128.00;-1.00;-1.00;99968;1285;1004572;-33
2023/12/04 09:49:36;;;;;;;102.40;40.60;;;;;;;-128.00;-1.00;-1.00;100044;1283;1004521;-33
2023/12/04 09:52:05;;;;;;;105.10;44.00;;;;;;;-128.00;-1.00;-1.00;100111;1283;1004800;-33
2023/12/04 09:54:31;;;;;;;69.50;31.90;;;;;;;-128.00;-1.00;-1.00;99994;1283;1061316;-36
2023/12/04 09:56:57;;;;;;;55.60;27.00;;;;;;;-128.00;-1.00;-1.00;99982;1284;1004617;-33
2023/12/04 09:59:24;;;;;;;55.30;25.80;;;;;;;-128.00;-1.00;-1.00;100034;1285;1005107;-36
2023/12/04 10:01:50;;;;;;;58.20;27.00;;;;;;;-128.00;-1.00;-1.00;100021;1285;1044307;-34
2023/12/04 10:04:16;;;;;;;49.80;24.20;;;;;;;-128.00;-1.00;-1.00;99966;1284;1004013;-35
2023/12/04 10:06:43;;;;;;;56.90;26.10;;;;;;;-128.00;-1.00;-1.00;100034;1283;1004514;-36
2023/12/04 10:09:11;;;;;;;49.80;24.70;;;;;;;-128.00;-1.00;-1.00;100043;1284;1004730;-37
2023/12/04 10:11:41;;;;;;;48.90;23.30;;;;;;;-128.00;-1.00;-1.00;99956;1283;1003499;-34
2023/12/04 10:14:13;;;;;;;43.60;21.50;;;;;;;-128.00;-1.00;-1.00;100044;1285;1014268;-35
2023/12/04 10:16:39;;;;;;;46.60;23.70;;;;;;;-128.00;-1.00;-1.00;100020;1283;1043994;-33
2023/12/04 10:19:17;;;;;;;;;;;;;;;-128.00;-1.00;-1.00;100060;1285;1004465;-37
2023/12/04 10:21:46;;;;;;;45.80;23.10;;;;;;;-128.00;-1.00;-1.00;100054;1283;1061718;-34
2023/12/04 10:24:12;;;;;;;38.30;20.80;;;;;;;-128.00;-1.00;-1.00;100000;1284;1059720;-31
2023/12/04 10:26:39;;;;;;;39.40;21.00;;;;;;;-128.00;-1.00;-1.00;99936;1285;1003990;-34
2023/12/04 10:29:05;;;;;;;41.20;22.00;;;;;;;-128.00;-1.00;-1.00;100045;1283;1005058;-36
2023/12/04 10:31:34;;;;;;;43.30;21.40;;;;;;;-128.00;-1.00;-1.00;99953;1284;1003881;-34
2023/12/04 10:34:01;;;;;;;42.10;20.60;;;;;;;-128.00;-1.00;-1.00;100032;1285;1047047;-36
2023/12/04 10:36:28;;;;;;;40.60;19.70;;;;;;;-128.00;-1.00;-1.00;100025;1283;1004474;-34
2023/12/04 10:39:00;;;;;;;43.20;20.90;;;;;;;-128.00;-1.00;-1.00;100001;1284;1004507;-35
2023/12/04 10:41:26;;;;;;;45.70;23.20;;;;;;;-128.00;-1.00;-1.00;100010;1284;1059650;-31
2023/12/04 10:43:52;;;;;;;41.70;22.30;;;;;;;-128.00;-1.00;-1.00;100061;1285;1004422;-35
2023/12/04 10:46:18;;;;;;;44.50;24.80;;;;;;;-128.00;-1.00;-1.00;100050;1288;1004255;-32
2023/12/04 10:48:45;;;;;;;43.40;24.30;;;;;;;-128.00;-1.00;-1.00;100041;1284;1003781;-32
2023/12/04 10:51:12;;;;;;;130.20;56.40;;;;;;;-128.00;-1.00;-1.00;100031;1283;1003691;-33
2023/12/04 10:53:41;;;;;;;145.20;58.20;;;;;;;-128.00;-1.00;-1.00;100091;1283;1004822;-32
2023/12/04 10:56:07;;;;;;;196.10;73.30;;;;;;;-128.00;-1.00;-1.00;99984;1284;1059648;-32
2023/12/04 10:58:33;;;;;;;155.00;59.90;;;;;;;-128.00;-1.00;-1.00;99930;1283;1005179;-31
2023/12/04 11:01:01;;;;;;;;;;;;;;;-128.00;-1.00;-1.00;99299;1285;1004666;-33
2023/12/04 11:03:35;;;;;;;84.30;37.90;;;;;;;-128.00;-1.00;-1.00;100004;1283;1005221;-32
2023/12/04 11:06:01;;;;;;;66.00;29.10;;;;;;;-128.00;-1.00;-1.00;100041;1283;1061168;-32
2023/12/04 11:08:29;;;;;;;61.40;24.20;;;;;;;-128.00;-1.00;-1.00;100007;1283;1004642;-33
2023/12/04 11:10:57;;;;;;;90.20;37.50;;;;;;;-128.00;-1.00;-1.00;100028;1283;1004038;-35
2023/12/04 11:13:31;;;;;;;62.80;30.60;;;;;;;-128.00;-1.00;-1.00;100048;1287;1003947;-32
2023/12/04 11:16:00;;;;;;;81.40;32.10;;;;;;;-128.00;-1.00;-1.00;100068;1288;1044551;-33
2023/12/04 11:18:26;;;;;;;76.10;32.60;;;;;;;-128.00;-1.00;-1.00;100111;1283;1047193;-33
2023/12/04 11:20:56;;;;;;;54.90;26.80;;;;;;;-128.00;-1.00;-1.00;100048;1283;1004699;-32
2023/12/04 11:23:22;;;;;;;67.90;33.80;;;;;;;-128.00;-1.00;-1.00;100062;1284;1057206;-32
2023/12/04 11:25:48;;;;;;;;;;;;;;;-128.00;-1.00;-1.00;100071;1284;1003611;-32
2023/12/04 11:28:13;;;;;;;54.10;28.80;;;;;;;-128.00;-1.00;-1.00;100027;1284;1004282;-32
2023/12/04 11:30:40;;;;;;;48.10;24.40;;;;;;;-128.00;-1.00;-1.00;100014;1285;1046736;-32
2023/12/04 11:33:05;;;;;;;44.70;23.00;;;;;;;-128.00;-1.00;-1.00;99981;1283;1004523;-32
2023/12/04 11:35:33;;;;;;;55.10;27.40;;;;;;;-128.00;-1.00;-1.00;100052;1285;1004368;-32
2023/12/04 11:37:59;;;;;;;52.60;25.50;;;;;;;-128.00;-1.00;-1.00;100065;1288;1014769;-33
2023/12/04 11:40:25;;;;;;;44.10;22.20;;;;;;;-128.00;-1.00;-1.00;100032;1285;1004592;-34
2023/12/04 11:42:52;;;;;;;;;;;;;;;-128.00;-1.00;-1.00;100116;1283;1004962;-33
2023/12/04 11:45:20;;;;;;;50.10;24.60;;;;;;;-128.00;-1.00;-1.00;99975;1285;1004554;-32
2023/12/04 11:47:50;;;;;;;48.30;25.40;;;;;;;-128.00;-1.00;-1.00;99919;1283;1056612;-32
2023/12/04 11:50:20;;;;;;;46.80;24.30;;;;;;;-128.00;-1.00;-1.00;100005;1285;1059828;-31